createdAt,value
2023-04-18T00:00:12.582Z,25.90
2023-04-18T00:01:09.887Z,24.10
2023-04-18T00:01:44.809Z,24.30
2023-04-18T00:02:18.564Z,26.10
2023-04-18T00:02:54.479Z,26.50
2023-04-18T00:03:30.273Z,25.80
2023-04-18T00:04:05.274Z,25.50
2023-04-18T00:04:38.978Z,24.60
2023-04-18T00:05:13.220Z,26.90
2023-04-18T00:05:48.231Z,24.40
2023-04-18T00:06:22.386Z,28.30
2023-04-18T00:06:56.039Z,25.90
2023-04-18T00:07:29.343Z,26.30
2023-04-18T00:08:03.324Z,25.90
2023-04-18T00:08:36.916Z,27.50
2023-04-18T00:09:10.661Z,24.00
2023-04-18T00:09:44.712Z,25.90
2023-04-18T00:10:18.517Z,26.30
2023-04-18T00:10:51.967Z,27.40
2023-04-18T00:11:27.352Z,26.10
2023-04-18T00:12:05.777Z,25.00
2023-04-18T00:12:40.850Z,26.00
2023-04-18T00:13:14.230Z,26.90
2023-04-18T00:13:47.688Z,27.20
2023-04-18T00:14:20.993Z,27.70
2023-04-18T00:14:55.113Z,26.50
2023-04-18T00:15:29.596Z,26.00
2023-04-18T00:16:04.254Z,26.70
2023-04-18T00:16:39.049Z,27.10
2023-04-18T00:17:13.612Z,25.60
2023-04-18T00:17:48.499Z,26.70
2023-04-18T00:18:22.241Z,27.30
2023-04-18T00:18:57.380Z,24.40
2023-04-18T00:19:30.890Z,25.10
2023-04-18T00:20:07.204Z,25.40
2023-04-18T00:20:40.688Z,27.40
2023-04-18T00:21:13.957Z,26.10
2023-04-18T00:21:47.253Z,24.20
2023-04-18T00:22:23.720Z,24.60
2023-04-18T00:22:57.216Z,24.10
2023-04-18T00:23:30.471Z,26.70
2023-04-18T00:24:03.813Z,28.20
2023-04-18T00:24:37.257Z,22.70
2023-04-18T00:25:11.305Z,23.70
2023-04-18T00:25:44.618Z,26.80
2023-04-18T00:26:17.887Z,25.30
2023-04-18T00:26:51.071Z,25.00
2023-04-18T00:27:24.455Z,27.90
2023-04-18T00:28:01.370Z,27.60
2023-04-18T00:28:35.305Z,24.80
2023-04-18T00:29:08.601Z,26.20
2023-04-18T00:29:42.769Z,26.70
2023-04-18T00:30:16.182Z,27.10
2023-04-18T00:30:49.471Z,25.20
2023-04-18T00:31:22.888Z,25.70
2023-04-18T00:31:57.511Z,28.40
2023-04-18T00:32:30.804Z,25.50
2023-04-18T00:33:05.737Z,27.60
2023-04-18T00:34:38.425Z,26.70
2023-04-18T00:35:11.733Z,27.10
2023-04-18T00:35:45.014Z,29.20
2023-04-18T00:36:21.076Z,30.40
2023-04-18T00:36:57.481Z,30.80
2023-04-18T00:37:39.991Z,30.20
2023-04-18T00:38:17.384Z,27.10
2023-04-18T00:38:50.766Z,29.50
2023-04-18T00:39:24.095Z,30.90
2023-04-18T00:39:58.352Z,28.90
2023-04-18T00:40:31.863Z,30.80
2023-04-18T00:41:05.524Z,29.00
2023-04-18T00:41:38.975Z,29.40
2023-04-18T00:42:12.491Z,29.60
2023-04-18T00:42:46.012Z,32.50
2023-04-18T00:43:23.829Z,32.00
2023-04-18T00:43:57.258Z,29.60
2023-04-18T00:44:31.747Z,30.80
2023-04-18T00:45:05.852Z,33.10
2023-04-18T00:45:41.879Z,33.50
2023-04-18T00:46:17.343Z,32.80
2023-04-18T00:46:51.514Z,31.30
2023-04-18T00:47:26.049Z,34.20
2023-04-18T00:47:59.375Z,33.70
2023-04-18T00:48:32.705Z,32.40
2023-04-18T00:49:07.430Z,34.00
2023-04-18T00:49:40.868Z,33.50
2023-04-18T00:50:15.200Z,33.60
2023-04-18T00:50:49.027Z,32.20
2023-04-18T00:51:22.500Z,33.50
2023-04-18T00:51:57.005Z,33.40
2023-04-18T00:52:32.093Z,34.20
2023-04-18T00:53:06.363Z,34.30
2023-04-18T00:53:42.014Z,34.90
2023-04-18T00:54:18.316Z,32.30
2023-04-18T00:54:51.895Z,29.70
2023-04-18T00:55:25.828Z,35.80
2023-04-18T00:55:59.412Z,35.10
2023-04-18T00:56:36.296Z,34.70
2023-04-18T00:57:10.010Z,33.70
2023-04-18T00:57:44.568Z,35.40
2023-04-18T00:58:18.450Z,36.70
2023-04-18T00:58:52.186Z,35.20
2023-04-18T00:59:25.994Z,34.00
2023-04-18T01:00:08.814Z,35.90
2023-04-18T01:00:42.996Z,37.20
2023-04-18T01:01:19.247Z,35.80
2023-04-18T01:01:53.075Z,35.80
2023-04-18T01:02:28.730Z,33.80
2023-04-18T01:03:03.965Z,31.90
2023-04-18T01:03:37.976Z,34.00
2023-04-18T01:04:14.133Z,35.40
2023-04-18T01:04:48.098Z,34.30
2023-04-18T01:05:23.076Z,34.10
2023-04-18T01:05:57.673Z,38.60
2023-04-18T01:06:32.209Z,37.70
2023-04-18T01:07:06.268Z,36.70
2023-04-18T01:07:42.785Z,35.40
2023-04-18T01:08:16.478Z,38.40
2023-04-18T01:08:49.863Z,32.50
2023-04-18T01:09:25.865Z,36.00
2023-04-18T01:09:59.678Z,36.00
2023-04-18T01:10:33.013Z,34.40
2023-04-18T01:11:06.285Z,38.10
2023-04-18T01:11:39.789Z,36.00
2023-04-18T01:12:13.254Z,38.90
2023-04-18T01:12:46.662Z,37.20
2023-04-18T01:13:21.302Z,35.40
2023-04-18T01:14:08.534Z,37.00
2023-04-18T01:14:43.171Z,37.60
2023-04-18T01:15:16.477Z,37.30
2023-04-18T01:15:51.234Z,38.70
2023-04-18T01:16:24.704Z,36.30
2023-04-18T01:16:59.026Z,36.00
2023-04-18T01:17:34.852Z,35.70
2023-04-18T01:18:09.305Z,38.50
2023-04-18T01:18:43.586Z,36.40
2023-04-18T01:19:21.721Z,33.80
2023-04-18T01:19:57.762Z,37.00
2023-04-18T01:20:35.482Z,34.80
2023-04-18T01:21:09.413Z,34.00
2023-04-18T01:21:44.083Z,40.20
2023-04-18T01:22:20.204Z,35.90
2023-04-18T01:22:53.937Z,37.00
2023-04-18T01:23:27.479Z,36.30
2023-04-18T01:24:08.102Z,35.70
2023-04-18T01:24:42.326Z,35.40
2023-04-18T01:25:16.273Z,36.60
2023-04-18T01:25:49.753Z,36.80
2023-04-18T01:26:24.377Z,36.80
2023-04-18T01:26:58.916Z,35.40
2023-04-18T01:27:32.854Z,34.70
2023-04-18T01:28:07.353Z,35.40
2023-04-18T01:28:42.352Z,36.20
2023-04-18T01:29:16.108Z,31.50
2023-04-18T01:29:49.554Z,32.00
2023-04-18T01:30:22.916Z,33.40
2023-04-18T01:30:58.331Z,35.50
2023-04-18T01:31:36.473Z,35.80
2023-04-18T01:32:09.897Z,35.50
2023-04-18T01:32:45.293Z,36.40
2023-04-18T01:33:18.770Z,37.50
2023-04-18T01:33:53.588Z,35.00
2023-04-18T01:34:27.400Z,36.10
2023-04-18T01:35:00.740Z,36.40
2023-04-18T01:35:34.685Z,36.80
2023-04-18T01:36:08.176Z,29.60
2023-04-18T01:36:41.581Z,35.00
2023-04-18T01:37:17.832Z,33.80
2023-04-18T01:37:51.136Z,35.60
2023-04-18T01:38:24.438Z,35.00
2023-04-18T01:38:58.553Z,31.20
2023-04-18T01:39:31.954Z,35.70
2023-04-18T01:40:05.767Z,36.90
2023-04-18T01:40:39.227Z,36.10
2023-04-18T01:41:12.621Z,36.10
2023-04-18T01:41:46.063Z,33.50
2023-04-18T01:42:19.296Z,31.90
2023-04-18T01:42:52.717Z,34.20
2023-04-18T01:43:26.091Z,32.40
2023-04-18T01:44:00.350Z,34.80
2023-04-18T01:44:34.072Z,35.30
2023-04-18T01:45:08.139Z,35.30
2023-04-18T01:45:41.421Z,33.70
2023-04-18T01:46:16.012Z,34.70
2023-04-18T01:46:49.429Z,36.90
2023-04-18T01:47:22.819Z,35.00
2023-04-18T01:47:56.414Z,34.80
2023-04-18T01:48:30.136Z,37.70
2023-04-18T01:51:18.382Z,34.80
2023-04-18T01:51:52.387Z,32.30
2023-04-18T01:52:28.398Z,34.80
2023-04-18T01:53:02.244Z,34.00
2023-04-18T01:53:36.377Z,33.80
2023-04-18T01:54:10.297Z,33.90
2023-04-18T01:54:44.335Z,35.80
2023-04-18T01:55:19.583Z,35.40
2023-04-18T01:55:53.590Z,35.50
2023-04-18T01:56:27.363Z,32.80
2023-04-18T01:57:01.532Z,36.30
2023-04-18T01:57:38.268Z,31.80
2023-04-18T01:58:12.193Z,34.00
2023-04-18T01:58:46.211Z,33.90
2023-04-18T01:59:20.165Z,30.40
2023-04-18T01:59:53.980Z,35.60
2023-04-18T02:00:27.973Z,34.60
2023-04-18T02:01:02.354Z,35.00
2023-04-18T02:01:37.021Z,34.80
2023-04-18T02:02:11.700Z,32.10
2023-04-18T02:02:46.016Z,36.10
2023-04-18T02:03:20.446Z,33.00
2023-04-18T02:03:57.021Z,33.50
2023-04-18T02:04:31.263Z,33.40
2023-04-18T02:05:05.721Z,33.60
2023-04-18T02:05:39.656Z,31.80
2023-04-18T02:06:15.403Z,30.70
2023-04-18T02:06:50.407Z,31.00
2023-04-18T02:07:24.451Z,31.90
2023-04-18T02:07:58.345Z,35.40
2023-04-18T02:08:36.134Z,32.00
2023-04-18T02:09:13.065Z,32.10
2023-04-18T02:09:49.050Z,33.40
2023-04-18T02:10:23.456Z,34.50
2023-04-18T02:10:57.283Z,33.50
2023-04-18T02:11:31.139Z,31.80
2023-04-18T02:12:08.284Z,33.40
2023-04-18T02:12:42.121Z,34.50
2023-04-18T02:13:17.341Z,35.70
2023-04-18T02:13:51.062Z,32.00
2023-04-18T02:14:24.981Z,33.10
2023-04-18T02:14:59.298Z,32.60
2023-04-18T02:15:34.293Z,31.20
2023-04-18T02:16:13.217Z,32.90
2023-04-18T02:16:46.991Z,32.70
2023-04-18T02:17:24.205Z,31.70
2023-04-18T02:18:01.485Z,30.40
2023-04-18T02:18:35.280Z,32.00
2023-04-18T02:19:09.026Z,32.60
2023-04-18T02:19:43.227Z,30.50
2023-04-18T02:20:17.111Z,29.20
2023-04-18T02:20:52.346Z,33.60
2023-04-18T02:21:30.588Z,31.00
2023-04-18T02:22:04.700Z,32.30
2023-04-18T02:22:39.802Z,33.40
2023-04-18T02:23:13.466Z,30.20
2023-04-18T02:23:47.384Z,31.00
2023-04-18T02:24:21.228Z,31.60
2023-04-18T02:24:55.084Z,31.10
2023-04-18T02:25:29.739Z,28.70
2023-04-18T02:26:06.617Z,31.00
2023-04-18T02:26:40.976Z,30.20
2023-04-18T02:27:14.736Z,32.40
2023-04-18T02:27:48.507Z,32.20
2023-04-18T02:28:22.324Z,32.40
2023-04-18T02:28:56.270Z,34.60
2023-04-18T02:29:30.821Z,34.60
2023-04-18T02:30:04.944Z,33.10
2023-04-18T02:30:40.313Z,30.00
2023-04-18T02:31:15.656Z,30.30
2023-04-18T02:31:49.635Z,31.00
2023-04-18T02:32:23.483Z,31.90
2023-04-18T02:32:59.938Z,30.20
2023-04-18T02:33:33.814Z,31.50
2023-04-18T02:34:09.012Z,29.60
2023-04-18T02:34:42.848Z,31.80
2023-04-18T02:35:16.870Z,30.20
2023-04-18T02:35:50.701Z,31.60
2023-04-18T02:36:26.433Z,32.90
2023-04-18T02:37:00.990Z,30.80
2023-04-18T02:37:35.404Z,29.60
2023-04-18T02:38:09.137Z,32.10
2023-04-18T02:38:42.785Z,29.60
2023-04-18T02:39:16.613Z,31.20
2023-04-18T02:39:51.195Z,31.80
2023-04-18T02:40:24.936Z,26.40
2023-04-18T02:40:58.610Z,28.80
2023-04-18T02:41:35.224Z,29.70
2023-04-18T02:42:09.267Z,29.70
2023-04-18T02:42:43.610Z,32.80
2023-04-18T02:43:20.325Z,30.40
2023-04-18T02:43:55.786Z,33.90
2023-04-18T02:44:29.935Z,30.80
2023-04-18T02:45:04.035Z,28.80
2023-04-18T02:45:38.007Z,32.40
2023-04-18T02:46:12.817Z,28.90
2023-04-18T02:46:47.881Z,31.20
2023-04-18T02:47:22.081Z,31.00
2023-04-18T02:47:56.831Z,27.70
2023-04-18T02:48:30.956Z,28.00
2023-04-18T02:49:05.832Z,29.20
2023-04-18T02:49:39.719Z,31.40
2023-04-18T02:50:13.353Z,29.90
2023-04-18T02:50:47.105Z,29.30
2023-04-18T02:51:20.834Z,26.70
2023-04-18T02:51:56.241Z,29.50
2023-04-18T02:52:31.307Z,27.30
2023-04-18T02:53:05.235Z,27.50
2023-04-18T02:53:49.025Z,28.80
2023-04-18T02:54:23.712Z,28.90
2023-04-18T02:55:11.423Z,28.30
2023-04-18T02:55:47.235Z,26.70
2023-04-18T02:56:22.456Z,29.40
2023-04-18T02:57:14.924Z,29.20
2023-04-18T02:57:54.537Z,29.10
2023-04-18T02:59:09.019Z,28.00
2023-04-18T03:01:27.305Z,27.40
2023-04-18T03:02:07.203Z,27.50
2023-04-18T03:02:42.652Z,31.50
2023-04-18T03:03:32.739Z,29.90
2023-04-18T03:04:18.977Z,30.00
2023-04-18T03:05:02.237Z,27.40
2023-04-18T03:05:36.619Z,26.60
2023-04-18T03:06:11.520Z,30.90
2023-04-18T03:06:46.545Z,30.60
2023-04-18T03:07:21.566Z,25.50
2023-04-18T03:07:56.117Z,29.50
2023-04-18T03:08:30.136Z,29.50
2023-04-18T03:09:05.808Z,30.00
2023-04-18T03:09:41.155Z,28.10
2023-04-18T03:10:23.344Z,31.00
2023-04-18T03:10:57.543Z,31.30
2023-04-18T03:11:31.910Z,31.50
2023-04-18T03:12:08.839Z,31.40
2023-04-18T03:12:42.953Z,32.30
2023-04-18T03:13:17.771Z,29.00
2023-04-18T03:13:52.140Z,32.80
2023-04-18T03:14:26.705Z,30.60
2023-04-18T03:15:02.439Z,30.00
2023-04-18T03:15:36.680Z,36.00
2023-04-18T03:16:10.437Z,29.90
2023-04-18T03:16:44.584Z,28.70
2023-04-18T03:17:20.067Z,31.40
2023-04-18T03:17:55.813Z,34.10
2023-04-18T03:18:29.863Z,29.90
2023-04-18T03:19:05.959Z,32.50
2023-04-18T03:19:40.627Z,32.50
2023-04-18T03:20:16.721Z,31.90
2023-04-18T03:20:56.238Z,32.50
2023-04-18T03:21:30.149Z,30.50
2023-04-18T03:22:04.001Z,41.00
2023-04-18T03:22:37.903Z,33.90
2023-04-18T03:23:11.831Z,36.60
2023-04-18T03:23:45.965Z,34.50
2023-04-18T03:24:19.808Z,40.00
2023-04-18T03:24:55.530Z,37.60
2023-04-18T03:25:35.678Z,32.60
2023-04-18T03:26:09.961Z,35.10
2023-04-18T03:26:44.518Z,34.80
2023-04-18T03:27:18.639Z,34.40
2023-04-18T03:27:52.649Z,35.40
2023-04-18T03:28:28.216Z,33.00
2023-04-18T03:29:03.386Z,28.40
2023-04-18T03:29:37.446Z,42.60
2023-04-18T03:30:12.800Z,31.90
2023-04-18T03:30:47.143Z,33.20
2023-04-18T03:31:21.259Z,35.80
2023-04-18T03:31:55.103Z,30.40
2023-04-18T03:32:29.129Z,36.20
2023-04-18T03:33:03.070Z,31.80
2023-04-18T03:33:39.494Z,33.10
2023-04-18T03:34:16.028Z,28.40
2023-04-18T03:34:51.766Z,33.80
2023-04-18T03:35:26.423Z,29.70
2023-04-18T03:36:00.270Z,31.60
2023-04-18T03:36:34.361Z,33.50
2023-04-18T03:37:08.218Z,28.80
2023-04-18T03:37:46.178Z,33.10
2023-04-18T03:38:24.956Z,31.50
2023-04-18T03:38:58.898Z,33.10
2023-04-18T03:39:32.730Z,32.40
2023-04-18T03:40:07.397Z,28.80
2023-04-18T03:40:44.827Z,30.20
2023-04-18T03:41:25.230Z,30.90
2023-04-18T03:41:59.185Z,32.00
2023-04-18T03:42:33.186Z,31.80
2023-04-18T03:43:07.021Z,33.80
2023-04-18T03:43:40.669Z,34.00
2023-04-18T03:44:14.740Z,32.40
2023-04-18T03:44:49.004Z,31.90
2023-04-18T03:45:22.839Z,33.20
2023-04-18T03:45:56.824Z,30.60
2023-04-18T03:46:31.469Z,30.40
2023-04-18T03:47:08.402Z,30.80
2023-04-18T03:47:43.085Z,31.70
2023-04-18T03:48:16.965Z,35.80
2023-04-18T03:48:50.995Z,31.30
2023-04-18T03:49:24.864Z,30.70
2023-04-18T03:49:58.779Z,31.70
2023-04-18T03:50:33.862Z,31.90
2023-04-18T03:51:08.447Z,32.20
2023-04-18T03:51:50.545Z,28.90
2023-04-18T03:52:24.923Z,31.10
2023-04-18T03:52:58.686Z,31.70
2023-04-18T03:53:32.708Z,33.20
2023-04-18T03:54:07.517Z,30.50
2023-04-18T03:54:41.464Z,33.10
2023-04-18T03:55:16.279Z,30.80
2023-04-18T03:55:51.022Z,29.80
2023-04-18T03:56:26.223Z,30.10
2023-04-18T03:57:05.181Z,30.70
2023-04-18T03:57:43.517Z,30.20
2023-04-18T03:58:24.014Z,32.20
2023-04-18T03:58:59.118Z,25.30
2023-04-18T03:59:33.051Z,27.80
2023-04-18T04:00:11.214Z,31.20
2023-04-18T04:00:57.016Z,24.30
2023-04-18T04:01:30.974Z,30.20
2023-04-18T04:02:05.112Z,27.10
2023-04-18T04:02:39.733Z,26.90
2023-04-18T04:03:13.702Z,27.20
2023-04-18T04:03:47.808Z,27.10
2023-04-18T04:04:22.231Z,30.10
2023-04-18T04:04:57.604Z,25.60
2023-04-18T04:05:31.618Z,28.00
2023-04-18T04:06:07.175Z,27.50
2023-04-18T04:06:41.451Z,28.80
2023-04-18T04:07:15.191Z,29.30
2023-04-18T04:07:49.122Z,27.30
2023-04-18T04:08:22.949Z,29.50
2023-04-18T04:08:56.815Z,28.80
2023-04-18T04:09:32.434Z,28.40
2023-04-18T04:10:07.301Z,28.00
2023-04-18T04:10:41.125Z,28.70
2023-04-18T04:11:14.883Z,27.10
2023-04-18T04:11:49.316Z,28.20
2023-04-18T04:12:23.401Z,27.80
2023-04-18T04:12:57.180Z,28.40
2023-04-18T04:13:32.120Z,27.60
2023-04-18T04:14:06.328Z,28.90
2023-04-18T04:14:44.741Z,28.70
2023-04-18T04:15:18.705Z,28.10
2023-04-18T04:16:02.904Z,29.40
2023-04-18T04:16:37.149Z,28.40
2023-04-18T04:17:11.426Z,27.10
2023-04-18T04:17:46.480Z,21.70
2023-04-18T04:18:20.950Z,24.60
2023-04-18T04:18:54.777Z,25.40
2023-04-18T04:19:30.661Z,27.20
2023-04-18T04:20:14.576Z,26.60
2023-04-18T04:20:51.565Z,24.20
2023-04-18T04:21:39.466Z,24.00
2023-04-18T04:22:17.437Z,25.70
2023-04-18T04:22:52.894Z,27.30
2023-04-18T04:23:27.453Z,23.70
2023-04-18T04:24:02.018Z,22.80
2023-04-18T04:24:40.020Z,25.20
2023-04-18T04:25:14.111Z,26.70
2023-04-18T04:25:54.160Z,27.20
2023-04-18T04:26:43.744Z,23.40
2023-04-18T04:27:23.517Z,22.60
2023-04-18T04:27:57.713Z,23.20
2023-04-18T04:28:32.037Z,25.80
2023-04-18T04:29:10.445Z,23.40
2023-04-18T04:29:45.625Z,24.70
2023-04-18T04:30:20.092Z,25.40
2023-04-18T04:30:56.293Z,24.60
2023-04-18T04:31:30.800Z,22.70
2023-04-18T04:32:06.054Z,23.30
2023-04-18T04:32:45.030Z,21.80
2023-04-18T04:33:25.601Z,22.80
2023-04-18T04:34:00.213Z,20.10
2023-04-18T04:34:36.066Z,21.30
2023-04-18T04:35:17.725Z,21.50
2023-04-18T04:35:55.159Z,22.70
2023-04-18T04:36:29.549Z,21.10
2023-04-18T04:37:04.117Z,20.50
2023-04-18T04:37:44.545Z,19.90
2023-04-18T04:38:40.925Z,18.80
2023-04-18T04:39:18.035Z,17.70
2023-04-18T04:40:09.684Z,20.40
2023-04-18T04:40:57.733Z,19.30
2023-04-18T04:41:38.067Z,17.00
2023-04-18T04:42:12.612Z,16.90
2023-04-18T04:42:57.056Z,19.40
2023-04-18T04:43:35.494Z,18.70
2023-04-18T04:44:09.966Z,22.30
2023-04-18T04:44:44.234Z,19.40
2023-04-18T04:45:18.450Z,19.60
2023-04-18T04:45:53.980Z,19.10
2023-04-18T04:46:31.303Z,18.80
2023-04-18T04:47:05.469Z,21.50
2023-04-18T04:47:41.508Z,21.00
2023-04-18T04:48:16.047Z,21.20
2023-04-18T04:48:54.780Z,20.90
2023-04-18T04:49:28.762Z,19.30
2023-04-18T04:50:04.781Z,19.40
2023-04-18T04:50:42.654Z,17.40
2023-04-18T04:51:18.542Z,18.60
2023-04-18T04:51:52.739Z,18.90
2023-04-18T04:52:27.030Z,20.90
2023-04-18T04:53:01.330Z,20.20
2023-04-18T04:53:36.272Z,19.10
2023-04-18T04:54:10.807Z,18.80
2023-04-18T04:54:46.263Z,20.80
2023-04-18T04:55:21.016Z,18.30
2023-04-18T04:55:56.459Z,19.90
2023-04-18T04:56:30.663Z,19.10
2023-04-18T04:57:04.757Z,22.20
2023-04-18T04:57:38.874Z,19.90
2023-04-18T04:58:22.296Z,18.90
2023-04-18T04:59:22.628Z,19.10
2023-04-18T04:59:57.737Z,18.10
2023-04-18T05:00:31.940Z,19.80
2023-04-18T05:01:10.942Z,18.80
2023-04-18T05:01:45.681Z,19.60
2023-04-18T05:02:23.762Z,19.10
2023-04-18T05:02:58.249Z,19.60
2023-04-18T05:03:33.173Z,19.60
2023-04-18T05:04:07.360Z,19.00
2023-04-18T05:04:41.583Z,19.40
2023-04-18T05:05:15.973Z,18.10
2023-04-18T05:05:49.786Z,19.70
2023-04-18T05:06:24.809Z,18.40
2023-04-18T05:06:58.722Z,18.80
2023-04-18T05:07:32.470Z,20.40
2023-04-18T05:08:06.659Z,19.20
2023-04-18T05:08:40.877Z,18.60
2023-04-18T05:09:14.533Z,19.30
2023-04-18T05:09:56.731Z,17.50
2023-04-18T05:11:01.660Z,18.10
2023-04-18T05:11:38.477Z,19.60
2023-04-18T05:12:12.583Z,19.50
2023-04-18T05:12:50.588Z,20.50
2023-04-18T05:13:24.424Z,18.20
2023-04-18T05:13:58.417Z,19.10
2023-04-18T05:14:32.453Z,21.00
2023-04-18T05:15:07.189Z,19.70
2023-04-18T05:15:41.565Z,21.00
2023-04-18T05:16:15.362Z,19.50
2023-04-18T05:16:49.393Z,20.10
2023-04-18T05:17:23.453Z,21.30
2023-04-18T05:17:58.707Z,19.00
2023-04-18T05:18:34.846Z,21.20
2023-04-18T05:19:08.770Z,19.70
2023-04-18T05:19:44.644Z,19.20
2023-04-18T05:20:18.606Z,21.30
2023-04-18T05:20:52.597Z,19.60
2023-04-18T05:21:29.159Z,20.70
2023-04-18T05:22:03.432Z,20.00
2023-04-18T05:22:37.453Z,18.40
2023-04-18T05:23:11.637Z,19.90
2023-04-18T05:24:14.783Z,20.10
2023-04-18T05:24:54.701Z,19.20
2023-04-18T05:25:30.157Z,20.80
2023-04-18T05:26:07.330Z,18.50
2023-04-18T05:26:44.762Z,19.60
2023-04-18T05:27:22.112Z,18.70
2023-04-18T05:27:57.906Z,18.90
2023-04-18T05:28:34.564Z,19.80
2023-04-18T05:29:08.584Z,19.50
2023-04-18T05:29:42.584Z,17.60
2023-04-18T05:30:40.791Z,19.80
2023-04-18T05:31:14.713Z,19.90
2023-04-18T05:31:51.603Z,19.80
2023-04-18T05:32:25.537Z,20.20
2023-04-18T05:32:59.355Z,18.50
2023-04-18T05:33:33.503Z,18.60
2023-04-18T05:34:07.485Z,17.90
2023-04-18T05:34:41.390Z,20.00
2023-04-18T05:35:15.143Z,19.30
2023-04-18T05:35:48.803Z,19.10
2023-04-18T05:36:23.204Z,20.00
2023-04-18T05:37:03.132Z,18.30
2023-04-18T05:37:36.980Z,18.80
2023-04-18T05:38:11.008Z,19.50
2023-04-18T05:38:44.926Z,17.80
2023-04-18T05:39:18.865Z,19.30
2023-04-18T05:39:52.797Z,17.60
2023-04-18T05:40:30.427Z,17.30
2023-04-18T05:41:04.624Z,18.30
2023-04-18T05:41:38.536Z,18.20
2023-04-18T05:42:12.190Z,17.70
2023-04-18T05:42:46.216Z,18.50
2023-04-18T05:43:20.508Z,17.30
2023-04-18T05:44:04.861Z,19.60
2023-04-18T05:44:40.001Z,17.60
2023-04-18T05:45:13.811Z,18.70
2023-04-18T05:45:48.154Z,18.10
2023-04-18T05:46:22.098Z,17.90
2023-04-18T05:46:56.233Z,17.00
2023-04-18T05:47:30.806Z,17.80
2023-04-18T05:48:05.044Z,17.40
2023-04-18T05:48:38.909Z,16.90
2023-04-18T05:49:13.483Z,17.80
2023-04-18T05:49:47.152Z,17.40
2023-04-18T05:50:23.679Z,17.70
2023-04-18T05:50:58.322Z,18.20
2023-04-18T05:51:34.862Z,18.70
2023-04-18T05:52:08.616Z,17.90
2023-04-18T05:52:42.650Z,16.20
2023-04-18T05:53:19.203Z,17.80
2023-04-18T05:53:55.901Z,17.10
2023-04-18T05:54:29.812Z,17.20
2023-04-18T05:55:03.839Z,17.60
2023-04-18T05:55:39.770Z,19.70
2023-04-18T05:56:13.785Z,15.70
2023-04-18T05:56:50.539Z,17.40
2023-04-18T05:57:24.641Z,15.70
2023-04-18T05:57:58.809Z,16.60
2023-04-18T05:58:35.263Z,15.40
2023-04-18T05:59:09.480Z,15.10
2023-04-18T05:59:43.860Z,16.60
2023-04-18T06:00:21.294Z,15.50
2023-04-18T06:00:56.305Z,16.70
2023-04-18T06:01:30.124Z,16.60
2023-04-18T06:02:13.770Z,16.20
2023-04-18T06:02:48.138Z,16.90
2023-04-18T06:03:24.641Z,17.10
2023-04-18T06:03:58.901Z,15.20
2023-04-18T06:04:33.368Z,16.20
2023-04-18T06:05:08.247Z,17.20
2023-04-18T06:05:45.244Z,15.40
2023-04-18T06:06:19.469Z,15.20
2023-04-18T06:06:53.134Z,16.20
2023-04-18T06:07:27.064Z,15.90
2023-04-18T06:08:01.198Z,16.20
2023-04-18T06:08:35.451Z,15.50
2023-04-18T06:09:09.289Z,14.20
2023-04-18T06:09:43.148Z,16.40
2023-04-18T06:10:17.635Z,14.90
2023-04-18T06:10:51.531Z,15.00
2023-04-18T06:11:25.208Z,13.30
2023-04-18T06:11:59.494Z,12.50
2023-04-18T06:12:33.245Z,14.30
2023-04-18T06:13:07.172Z,16.10
2023-04-18T06:13:41.260Z,12.30
2023-04-18T06:14:15.222Z,14.20
2023-04-18T06:14:50.244Z,13.80
2023-04-18T06:15:24.244Z,13.90
2023-04-18T06:15:58.461Z,13.50
2023-04-18T06:16:32.525Z,13.60
2023-04-18T06:17:10.424Z,13.60
2023-04-18T06:17:45.041Z,13.30
2023-04-18T06:18:19.006Z,13.80
2023-04-18T06:18:55.728Z,14.00
2023-04-18T06:19:29.557Z,13.40
2023-04-18T06:20:06.144Z,13.40
2023-04-18T06:20:40.213Z,13.60
2023-04-18T06:21:14.769Z,14.70
2023-04-18T06:21:49.516Z,13.20
2023-04-18T06:22:23.361Z,13.80
2023-04-18T06:22:57.197Z,13.50
2023-04-18T06:23:31.169Z,13.80
2023-04-18T06:24:04.951Z,12.80
2023-04-18T06:24:38.798Z,12.90
2023-04-18T06:25:12.546Z,14.70
2023-04-18T06:25:46.743Z,12.70
2023-04-18T06:26:20.703Z,13.70
2023-04-18T06:26:56.255Z,13.60
2023-04-18T06:27:31.886Z,14.70
2023-04-18T06:28:06.096Z,12.70
2023-04-18T06:28:40.077Z,12.50
2023-04-18T06:29:13.823Z,13.70
2023-04-18T06:29:47.736Z,13.80
2023-04-18T06:30:22.430Z,12.40
2023-04-18T06:30:59.044Z,14.10
2023-04-18T06:31:33.103Z,13.60
2023-04-18T06:32:07.268Z,12.90
2023-04-18T06:32:41.193Z,13.80
2023-04-18T06:33:15.037Z,14.00
2023-04-18T06:33:48.960Z,11.70
2023-04-18T06:34:22.984Z,12.10
2023-04-18T06:34:57.268Z,13.40
2023-04-18T06:35:32.099Z,13.10
2023-04-18T06:36:07.470Z,11.40
2023-04-18T06:36:41.507Z,11.30
2023-04-18T06:37:18.295Z,12.50
2023-04-18T06:37:52.680Z,13.20
2023-04-18T06:38:38.122Z,14.40
2023-04-18T06:39:12.161Z,13.40
2023-04-18T06:39:46.350Z,11.70
2023-04-18T06:40:20.271Z,13.10
2023-04-18T06:40:54.135Z,12.60
2023-04-18T06:41:27.962Z,14.10
2023-04-18T06:42:02.965Z,12.00
2023-04-18T06:42:39.339Z,11.60
2023-04-18T06:43:13.156Z,13.10
2023-04-18T06:44:02.028Z,10.60
2023-04-18T06:44:37.006Z,10.90
2023-04-18T06:45:12.396Z,11.90
2023-04-18T06:45:47.583Z,11.80
2023-04-18T06:46:21.590Z,12.80
2023-04-18T06:46:56.083Z,12.90
2023-04-18T06:47:30.687Z,13.70
2023-04-18T06:48:07.416Z,11.80
2023-04-18T06:48:41.497Z,11.10
2023-04-18T06:49:15.390Z,12.60
2023-04-18T06:49:49.149Z,13.30
2023-04-18T06:50:23.094Z,11.60
2023-04-18T06:50:57.201Z,12.70
2023-04-18T06:51:32.027Z,12.70
2023-04-18T06:52:08.489Z,12.40
2023-04-18T06:52:44.835Z,13.80
2023-04-18T06:53:18.670Z,13.20
2023-04-18T06:53:55.420Z,12.30
2023-04-18T06:54:29.533Z,11.10
2023-04-18T06:55:06.761Z,13.00
2023-04-18T06:55:41.409Z,11.50
2023-04-18T06:56:15.254Z,13.60
2023-04-18T06:56:49.081Z,13.30
2023-04-18T06:57:23.021Z,11.80
2023-04-18T06:57:56.789Z,13.40
2023-04-18T06:58:30.798Z,13.20
2023-04-18T06:59:04.529Z,13.80
2023-04-18T06:59:38.284Z,12.70
2023-04-18T07:00:12.564Z,12.70
2023-04-18T07:00:49.252Z,13.00
2023-04-18T07:01:23.081Z,12.10
2023-04-18T07:01:57.812Z,12.00
2023-04-18T07:02:32.058Z,11.90
2023-04-18T07:03:11.374Z,12.40
2023-04-18T07:03:45.967Z,13.50
2023-04-18T07:04:20.458Z,12.80
2023-04-18T07:04:54.552Z,11.70
2023-04-18T07:05:28.502Z,13.90
2023-04-18T07:06:03.504Z,13.70
2023-04-18T07:06:37.950Z,12.80
2023-04-18T07:07:11.910Z,12.90
2023-04-18T07:07:45.932Z,14.70
2023-04-18T07:08:20.383Z,13.60
2023-04-18T07:08:56.282Z,13.40
2023-04-18T07:09:30.312Z,12.90
2023-04-18T07:10:05.058Z,14.30
2023-04-18T07:10:38.958Z,12.30
2023-04-18T07:11:15.686Z,13.30
2023-04-18T07:11:51.504Z,13.60
2023-04-18T07:12:28.317Z,14.10
2023-04-18T07:13:02.158Z,12.70
2023-04-18T07:13:36.097Z,12.20
2023-04-18T07:14:12.897Z,12.70
2023-04-18T07:14:47.029Z,12.20
2023-04-18T07:15:21.038Z,13.10
2023-04-18T07:15:55.136Z,13.40
2023-04-18T07:16:28.938Z,11.50
2023-04-18T07:17:02.768Z,13.20
2023-04-18T07:17:39.199Z,12.80
2023-04-18T07:18:16.132Z,13.40
2023-04-18T07:18:54.515Z,12.80
2023-04-18T07:19:28.242Z,12.30
2023-04-18T07:20:04.343Z,13.10
2023-04-18T07:20:41.451Z,12.10
2023-04-18T07:21:15.130Z,12.30
2023-04-18T07:21:48.917Z,11.70
2023-04-18T07:22:22.837Z,12.90
2023-04-18T07:22:56.699Z,11.80
2023-04-18T07:23:30.360Z,13.00
2023-04-18T07:24:04.079Z,13.00
2023-04-18T07:24:39.643Z,12.30
2023-04-18T07:25:13.486Z,12.20
2023-04-18T07:25:47.511Z,11.10
2023-04-18T07:26:22.360Z,12.40
2023-04-18T07:26:57.188Z,12.80
2023-04-18T07:27:31.370Z,12.30
2023-04-18T07:28:05.287Z,11.10
2023-04-18T07:28:42.189Z,12.30
2023-04-18T07:29:16.150Z,11.60
2023-04-18T07:29:49.877Z,11.30
2023-04-18T07:30:23.710Z,12.50
2023-04-18T07:30:57.672Z,11.80
2023-04-18T07:31:31.756Z,11.40
2023-04-18T07:32:08.110Z,12.10
2023-04-18T07:32:42.431Z,11.70
2023-04-18T07:33:16.625Z,11.60
2023-04-18T07:33:50.537Z,13.20
2023-04-18T07:34:25.703Z,12.20
2023-04-18T07:34:59.584Z,11.80
2023-04-18T07:35:34.300Z,13.10
2023-04-18T07:36:08.227Z,13.40
2023-04-18T07:36:41.879Z,13.70
2023-04-18T07:37:17.885Z,11.90
2023-04-18T07:37:53.894Z,11.90
2023-04-18T07:38:28.187Z,12.60
2023-04-18T07:39:02.289Z,12.00
2023-04-18T07:39:36.612Z,11.30
2023-04-18T07:40:10.962Z,12.40